createdAt,value
2018-07-13T00:01:12.523Z,99369.77
2018-07-13T00:03:42.827Z,99372.52
2018-07-13T00:06:12.858Z,99369.51
2018-07-13T00:08:43.372Z,99366.50
2018-07-13T00:11:13.520Z,99362.97
2018-07-13T00:13:54.450Z,99367.41
2018-07-13T00:16:24.852Z,99366.09
2018-07-13T00:18:55.445Z,99365.08
2018-07-13T00:21:25.598Z,99362.36
2018-07-13T00:23:55.820Z,99369.28
2018-07-13T00:26:26.235Z,99366.89
2018-07-13T00:28:56.669Z,99370.54
2018-07-13T00:31:27.074Z,99378.28
2018-07-13T00:33:58.040Z,99376.44
2018-07-13T00:36:29.214Z,99369.05
2018-07-13T00:38:59.791Z,99371.80
2018-07-13T00:41:30.036Z,99364.17
2018-07-13T00:44:00.220Z,99366.69
2018-07-13T00:46:31.641Z,99365.08
2018-07-13T00:49:01.784Z,99371.17
2018-07-13T00:51:32.597Z,99372.89
2018-07-13T00:54:02.846Z,99366.09
2018-07-13T00:56:33.006Z,99365.34
2018-07-13T00:59:03.959Z,99370.81
2018-07-13T01:01:34.919Z,99373.30
2018-07-13T01:04:05.069Z,99368.69
2018-07-13T01:06:35.351Z,99370.34
2018-07-13T01:09:06.322Z,99374.72
2018-07-13T01:11:37.012Z,99374.72
2018-07-13T01:14:07.197Z,99384.88
2018-07-13T01:16:37.292Z,99379.95
2018-07-13T01:19:08.436Z,99381.05
2018-07-13T01:21:38.808Z,99371.77
2018-07-13T01:24:09.903Z,99375.89
2018-07-13T01:26:40.175Z,99365.76
2018-07-13T01:29:10.599Z,99367.13
2018-07-13T01:31:40.992Z,99361.91
2018-07-13T01:34:11.359Z,99368.27
2018-07-13T01:36:41.944Z,99370.75
2018-07-13T01:39:13.588Z,99367.47
2018-07-13T01:41:45.069Z,99368.34
2018-07-13T01:44:15.207Z,99373.28
2018-07-13T01:46:45.210Z,99365.89
2018-07-13T01:49:15.668Z,99369.51
2018-07-13T01:51:46.007Z,99369.24
2018-07-13T01:54:16.198Z,99366.79
2018-07-13T01:56:46.433Z,99372.04
2018-07-13T01:59:16.688Z,99367.66
2018-07-13T02:01:46.840Z,99372.59
2018-07-13T02:04:16.978Z,99371.51
2018-07-13T02:06:47.586Z,99371.27
2018-07-13T02:09:17.663Z,99365.23
2018-07-13T02:11:48.122Z,99364.41
2018-07-13T02:14:18.687Z,99370.71
2018-07-13T02:16:48.922Z,99365.52
2018-07-13T02:19:19.657Z,99369.95
2018-07-13T02:21:49.721Z,99376.20
2018-07-13T02:24:20.049Z,99368.58
2018-07-13T02:26:50.288Z,99375.93
2018-07-13T02:29:20.510Z,99373.19
2018-07-13T02:31:51.149Z,99372.14
2018-07-13T02:34:21.760Z,99373.23
2018-07-13T02:36:51.908Z,99372.74
2018-07-13T02:39:22.185Z,99374.66
2018-07-13T02:41:52.681Z,99371.39
2018-07-13T02:44:22.911Z,99371.94
2018-07-13T02:46:52.964Z,99369.25
2018-07-13T02:49:23.270Z,99379.95
2018-07-13T02:51:53.556Z,99375.02
2018-07-13T02:54:23.593Z,99376.18
2018-07-13T02:56:54.086Z,99373.44
2018-07-13T02:59:24.949Z,99366.09
2018-07-13T03:01:55.101Z,99375.41
2018-07-13T03:04:25.482Z,99366.38
2018-07-13T03:06:57.227Z,99375.15
2018-07-13T03:09:27.578Z,99375.15
2018-07-13T03:11:57.724Z,99375.73
2018-07-13T03:14:28.123Z,99380.12
2018-07-13T03:16:59.135Z,99378.20
2018-07-13T03:19:29.353Z,99382.05
2018-07-13T03:21:59.322Z,99382.05
2018-07-13T03:24:29.526Z,99382.05
2018-07-13T03:26:59.627Z,99380.68
2018-07-13T03:29:29.783Z,99386.16
2018-07-13T03:31:59.925Z,99380.41
2018-07-13T03:34:30.195Z,99387.81
2018-07-13T03:37:00.559Z,99393.06
2018-07-13T03:39:30.713Z,99390.87
2018-07-13T03:42:01.013Z,99392.53
2018-07-13T03:44:31.288Z,99391.16
2018-07-13T03:47:02.418Z,99395.27
2018-07-13T03:49:32.569Z,99394.98
2018-07-13T03:52:02.705Z,99392.19
2018-07-13T03:54:33.247Z,99389.45
2018-07-13T03:57:04.443Z,99393.02
2018-07-13T03:59:34.875Z,99393.28
2018-07-13T04:02:04.984Z,99398.44
2018-07-13T04:04:36.204Z,99396.52
2018-07-13T04:07:06.578Z,99399.19
2018-07-13T04:09:36.761Z,99400.22
2018-07-13T04:12:07.166Z,99397.43
2018-07-13T04:14:37.384Z,99402.02
2018-07-13T04:17:07.528Z,99396.20
2018-07-13T04:19:37.841Z,99393.16
2018-07-13T04:22:08.414Z,99401.04
2018-07-13T04:24:38.686Z,99397.14
2018-07-13T04:27:08.757Z,99401.46
2018-07-13T04:29:39.847Z,99401.94
2018-07-13T04:32:10.123Z,99403.20
2018-07-13T04:34:40.337Z,99399.83
2018-07-13T04:37:10.635Z,99400.03
2018-07-13T04:39:41.114Z,99398.31
2018-07-13T04:42:11.647Z,99400.98
2018-07-13T04:44:41.994Z,99394.56
2018-07-13T04:47:12.498Z,99397.22
2018-07-13T04:49:43.012Z,99388.34
2018-07-13T04:52:13.575Z,99393.98
2018-07-13T04:54:43.895Z,99388.96
2018-07-13T04:57:14.122Z,99387.23
2018-07-13T04:59:44.696Z,99389.63
2018-07-13T05:02:15.176Z,99392.28
2018-07-13T05:04:45.454Z,99395.75
2018-07-13T05:07:15.482Z,99389.36
2018-07-13T05:09:45.705Z,99389.55
2018-07-13T05:12:15.847Z,99391.36
2018-07-13T05:14:46.105Z,99389.33
2018-07-13T05:17:16.427Z,99392.77
2018-07-13T05:19:49.498Z,99387.70
2018-07-13T05:22:20.269Z,99396.37
2018-07-13T05:24:50.565Z,99397.08
2018-07-13T05:27:21.189Z,99398.36
2018-07-13T05:29:51.263Z,99395.48
2018-07-13T05:32:21.670Z,99395.11
2018-07-13T05:34:51.898Z,99394.19
2018-07-13T05:37:22.613Z,99396.21
2018-07-13T05:39:52.800Z,99389.82
2018-07-13T05:42:23.038Z,99394.62
2018-07-13T05:44:53.325Z,99403.88
2018-07-13T05:47:23.830Z,99394.44
2018-07-13T05:49:54.209Z,99394.14
2018-07-13T05:52:24.510Z,99389.39
2018-07-13T05:54:54.812Z,99392.81
2018-07-13T05:57:25.614Z,99390.28
2018-07-13T05:59:55.888Z,99401.70
2018-07-13T06:02:26.758Z,99395.02
2018-07-13T06:04:57.038Z,99397.45
2018-07-13T06:07:27.580Z,99403.66
2018-07-13T06:09:58.011Z,99404.89
2018-07-13T06:12:28.473Z,99400.31
2018-07-13T06:14:58.642Z,99405.44
2018-07-13T06:17:28.893Z,99410.01
2018-07-13T06:19:59.180Z,99408.26
2018-07-13T06:22:30.018Z,99406.77
2018-07-13T06:25:00.484Z,99412.14
2018-07-13T06:27:30.769Z,99410.72
2018-07-13T06:30:00.955Z,99416.66
2018-07-13T06:32:31.516Z,99414.91
2018-07-13T06:35:02.066Z,99412.89
2018-07-13T06:37:32.633Z,99416.00
2018-07-13T06:40:02.844Z,99423.63
2018-07-13T06:42:33.006Z,99427.85
2018-07-13T06:45:02.863Z,99429.19
2018-07-13T06:47:33.019Z,99427.16
2018-07-13T06:50:03.190Z,99430.99
2018-07-13T06:52:33.150Z,99430.35
2018-07-13T06:55:03.622Z,99436.85
2018-07-13T06:57:44.592Z,99437.25
2018-07-13T07:01:17.944Z,99436.08
2018-07-13T07:04:52.719Z,99432.34
2018-07-13T07:07:27.195Z,99438.37
2018-07-13T07:09:58.114Z,99430.58
2018-07-13T07:12:50.160Z,99442.03
2018-07-13T07:15:20.159Z,99449.48
2018-07-13T07:17:50.507Z,99442.59
2018-07-13T07:20:20.974Z,99446.42
2018-07-13T07:22:51.272Z,99453.98
2018-07-13T07:25:21.467Z,99447.27
2018-07-13T07:27:51.513Z,99448.34
2018-07-13T07:30:21.605Z,99453.47
2018-07-13T07:32:51.745Z,99441.23
2018-07-13T07:35:22.455Z,99453.50
2018-07-13T07:37:52.749Z,99433.88
2018-07-13T07:40:23.252Z,99444.75
2018-07-13T07:42:53.246Z,99441.35
2018-07-13T07:45:23.376Z,99440.70
2018-07-13T07:47:53.638Z,99444.19
2018-07-13T07:50:23.755Z,99448.27
2018-07-13T07:52:53.862Z,99438.53
2018-07-13T07:55:24.267Z,99437.89
2018-07-13T07:57:54.618Z,99445.20
2018-07-13T08:00:25.019Z,99441.56
2018-07-13T08:02:55.600Z,99433.20
2018-07-13T08:05:26.955Z,99446.91
2018-07-13T08:07:56.911Z,99442.38
2018-07-13T08:10:27.577Z,99437.59
2018-07-13T08:12:57.546Z,99425.59
2018-07-13T08:15:28.023Z,99425.22
2018-07-13T08:17:58.273Z,99425.62
2018-07-13T08:20:31.076Z,99421.09
2018-07-13T08:23:05.965Z,99428.97
2018-07-13T08:25:37.688Z,99416.36
2018-07-13T08:28:08.742Z,99416.46
2018-07-13T08:30:40.809Z,99418.72
2018-07-13T08:33:11.277Z,99413.61
2018-07-13T08:35:41.519Z,99408.24
2018-07-13T08:38:12.075Z,99421.06
2018-07-13T08:40:42.452Z,99413.19
2018-07-13T08:43:12.999Z,99410.59
2018-07-13T08:45:43.847Z,99414.87
2018-07-13T08:48:14.079Z,99423.88
2018-07-13T08:50:44.039Z,99419.89
2018-07-13T08:53:14.235Z,99417.03
2018-07-13T08:55:44.629Z,99420.48
2018-07-13T08:58:15.255Z,99412.25
2018-07-13T09:00:45.810Z,99411.83
2018-07-13T09:03:16.136Z,99415.80
2018-07-13T09:05:46.503Z,99417.44
2018-07-13T09:08:17.260Z,99422.05
2018-07-13T09:10:47.668Z,99418.71
2018-07-13T09:13:18.174Z,99416.98
2018-07-13T09:15:48.397Z,99429.14
2018-07-13T09:18:19.068Z,99431.17
2018-07-13T09:20:49.336Z,99423.42
2018-07-13T09:23:19.678Z,99425.09
2018-07-13T09:25:50.655Z,99424.00
2018-07-13T09:28:20.742Z,99418.52
2018-07-13T09:30:51.146Z,99421.94
2018-07-13T09:33:21.714Z,99420.38
2018-07-13T09:35:52.459Z,99420.28
2018-07-13T09:38:22.792Z,99418.92
2018-07-13T09:40:53.492Z,99418.85
2018-07-13T09:43:23.717Z,99418.42
2018-07-13T09:45:53.900Z,99418.56
2018-07-13T09:48:24.025Z,99424.23
2018-07-13T09:50:55.177Z,99419.41
2018-07-13T09:53:25.198Z,99416.78
2018-07-13T09:55:55.331Z,99415.28
2018-07-13T09:58:33.034Z,99417.05
2018-07-13T10:01:08.208Z,99404.28
2018-07-13T10:03:38.460Z,99409.59
2018-07-13T10:06:08.533Z,99406.87
2018-07-13T10:08:39.007Z,99413.28
2018-07-13T10:11:09.493Z,99412.27
2018-07-13T10:13:39.471Z,99415.41
2018-07-13T10:16:11.096Z,99403.66
2018-07-13T10:18:41.132Z,99398.72
2018-07-13T10:21:11.596Z,99399.58
2018-07-13T10:23:43.458Z,99400.64
2018-07-13T10:26:16.778Z,99391.78
2018-07-13T10:28:46.833Z,99388.56
2018-07-13T10:31:17.014Z,99386.98
2018-07-13T10:33:47.389Z,99398.39
2018-07-13T10:36:19.631Z,99396.80
2018-07-13T10:38:49.656Z,99382.90
2018-07-13T10:41:20.694Z,99397.20
2018-07-13T10:43:51.159Z,99398.83
2018-07-13T10:46:25.930Z,99391.33
2018-07-13T10:48:56.724Z,99389.49
2018-07-13T10:51:27.017Z,99378.98
2018-07-13T10:53:57.954Z,99379.47
2018-07-13T10:56:28.114Z,99379.95
2018-07-13T10:58:58.394Z,99386.75
2018-07-13T11:01:28.802Z,99383.41
2018-07-13T11:04:00.509Z,99376.36
2018-07-13T11:06:30.831Z,99370.12
2018-07-13T11:09:01.163Z,99366.31
2018-07-13T11:11:31.271Z,99365.05
2018-07-13T11:14:01.305Z,99376.16
2018-07-13T11:16:31.802Z,99372.67
2018-07-13T11:19:02.154Z,99363.47
2018-07-13T11:21:32.286Z,99366.59
2018-07-13T11:24:02.518Z,99364.94
2018-07-13T11:26:32.910Z,99362.89
2018-07-13T11:29:03.130Z,99368.06
2018-07-13T11:31:33.393Z,99371.05
2018-07-13T11:34:03.883Z,99360.07
2018-07-13T11:36:34.256Z,99365.86
2018-07-13T11:39:05.021Z,99374.50
2018-07-13T11:41:35.753Z,99371.49
2018-07-13T11:44:06.341Z,99361.66
2018-07-13T11:46:36.864Z,99367.55
2018-07-13T11:49:08.046Z,99366.50
2018-07-13T11:51:38.591Z,99360.71
2018-07-13T11:54:08.535Z,99359.59
2018-07-13T11:56:38.860Z,99363.38
2018-07-13T11:59:08.865Z,99356.45
2018-07-13T12:01:39.230Z,99351.03
2018-07-13T12:04:09.428Z,99356.81
2018-07-13T12:06:39.695Z,99347.20
2018-07-13T12:09:10.182Z,99345.01
2018-07-13T12:11:40.496Z,99346.39
2018-07-13T12:14:11.315Z,99347.58
2018-07-13T12:16:42.102Z,99348.48
2018-07-13T12:19:12.332Z,99356.81
2018-07-13T12:21:42.643Z,99352.55
2018-07-13T12:24:13.020Z,99359.13
2018-07-13T12:26:43.398Z,99365.52
2018-07-13T12:29:13.640Z,99355.23
2018-07-13T12:31:43.718Z,99351.33
2018-07-13T12:34:14.327Z,99358.02
2018-07-13T12:36:44.309Z,99352.13
2018-07-13T12:39:14.513Z,99354.33
2018-07-13T12:41:45.285Z,99346.45
2018-07-13T12:44:15.491Z,99344.61
2018-07-13T12:46:45.607Z,99338.59
2018-07-13T12:49:15.986Z,99338.59
2018-07-13T12:51:46.052Z,99343.90
2018-07-13T12:54:16.398Z,99345.41
2018-07-13T12:56:47.390Z,99348.31
2018-07-13T12:59:17.641Z,99354.33
2018-07-13T13:01:48.059Z,99357.09
2018-07-13T13:04:18.273Z,99358.49
2018-07-13T13:06:48.415Z,99348.30
2018-07-13T13:09:19.147Z,99343.67
2018-07-13T13:11:49.846Z,99331.09
2018-07-13T13:14:20.137Z,99333.42
2018-07-13T13:16:50.361Z,99333.75
2018-07-13T13:19:20.533Z,99341.84
2018-07-13T13:21:50.811Z,99328.55
2018-07-13T13:24:21.200Z,99340.91
2018-07-13T13:26:51.672Z,99341.39
2018-07-13T13:29:21.948Z,99338.16
2018-07-13T13:31:52.126Z,99345.09
2018-07-13T13:34:22.415Z,99347.86
2018-07-13T13:36:52.697Z,99345.09
2018-07-13T13:39:23.221Z,99346.61
2018-07-13T13:41:53.785Z,99342.78
2018-07-13T13:44:24.076Z,99337.94
2018-07-13T13:46:54.210Z,99346.02
2018-07-13T13:49:24.465Z,99341.28
2018-07-13T13:51:54.792Z,99333.78
2018-07-13T13:54:25.179Z,99336.42
2018-07-13T13:56:55.355Z,99337.22
2018-07-13T13:59:25.595Z,99333.06
2018-07-13T14:01:55.819Z,99337.20
2018-07-13T14:04:26.549Z,99330.28
2018-07-13T14:06:57.321Z,99333.84
2018-07-13T14:09:27.615Z,99324.00
2018-07-13T14:11:57.894Z,99327.92
2018-07-13T14:14:28.833Z,99340.38
2018-07-13T14:16:59.220Z,99323.72
2018-07-13T14:19:29.547Z,99319.56
2018-07-13T14:22:00.146Z,99326.59
2018-07-13T14:24:30.289Z,99321.28
2018-07-13T14:27:03.323Z,99327.64
2018-07-13T14:29:33.848Z,99348.22
2018-07-13T14:32:04.204Z,99334.83
2018-07-13T14:34:34.740Z,99347.52
2018-07-13T14:37:05.318Z,99358.44
2018-07-13T14:39:35.280Z,99358.69
2018-07-13T14:42:06.763Z,99367.95
2018-07-13T14:44:36.915Z,99374.19
2018-07-13T14:47:07.183Z,99365.53
2018-07-13T14:49:38.822Z,99370.28
2018-07-13T14:52:09.405Z,99355.46
2018-07-13T14:54:39.733Z,99354.77
2018-07-13T14:57:09.949Z,99358.57
2018-07-13T14:59:40.331Z,99363.06
2018-07-13T15:02:10.834Z,99368.15
2018-07-13T15:04:41.178Z,99371.70
2018-07-13T15:07:11.509Z,99369.66
2018-07-13T15:09:42.503Z,99381.06
2018-07-13T15:12:12.855Z,99375.79
2018-07-13T15:14:43.134Z,99384.55
2018-07-13T15:17:13.596Z,99384.80
2018-07-13T15:19:44.359Z,99385.88
2018-07-13T15:22:14.583Z,99373.03
2018-07-13T15:24:44.880Z,99371.53
2018-07-13T15:27:15.594Z,99368.61
2018-07-13T15:29:46.089Z,99368.22
2018-07-13T15:32:16.524Z,99356.65
2018-07-13T15:34:47.013Z,99355.77
2018-07-13T15:37:17.355Z,99351.30
2018-07-13T15:39:47.918Z,99344.72
2018-07-13T15:42:18.048Z,99343.10
2018-07-13T15:44:48.165Z,99342.70
2018-07-13T15:47:18.338Z,99346.60
2018-07-13T15:49:48.591Z,99348.71
2018-07-13T15:52:18.768Z,99345.88
2018-07-13T15:54:48.963Z,99346.34
2018-07-13T15:57:19.059Z,99350.95
2018-07-13T15:59:49.489Z,99357.94
2018-07-13T16:02:19.637Z,99358.30
2018-07-13T16:04:49.631Z,99365.76
2018-07-13T16:07:20.046Z,99361.70
2018-07-13T16:09:50.313Z,99366.63
2018-07-13T16:12:20.193Z,99387.47
2018-07-13T16:14:50.305Z,99394.66
2018-07-13T16:17:20.550Z,99392.53
2018-07-13T16:19:51.658Z,99395.41
2018-07-13T16:22:21.692Z,99406.01
2018-07-13T16:24:52.466Z,99400.98
2018-07-13T16:27:22.528Z,99397.97
2018-07-13T16:29:52.687Z,99397.97
2018-07-13T16:32:22.916Z,99374.42
2018-07-13T16:34:53.683Z,99365.61
2018-07-13T16:37:23.861Z,99367.42
2018-07-13T16:39:53.979Z,99371.27
2018-07-13T16:42:24.192Z,99366.50
2018-07-13T16:44:54.413Z,99361.27
2018-07-13T16:47:24.979Z,99360.64
2018-07-13T16:49:55.259Z,99362.99
2018-07-13T16:52:25.468Z,99352.56
2018-07-13T16:54:55.609Z,99350.67
2018-07-13T16:57:25.951Z,99357.32
2018-07-13T16:59:56.452Z,99349.89
2018-07-13T17:02:28.432Z,99355.41
2018-07-13T17:04:58.539Z,99347.05
2018-07-13T17:07:29.339Z,99340.68
2018-07-13T17:09:59.559Z,99347.20
2018-07-13T17:12:29.879Z,99345.80
2018-07-13T17:15:00.250Z,99345.06
2018-07-13T17:17:30.377Z,99341.42
2018-07-13T17:20:00.471Z,99341.28
2018-07-13T17:22:31.303Z,99336.43
2018-07-13T17:25:01.994Z,99346.52
2018-07-13T17:27:33.934Z,99339.02
2018-07-13T17:30:05.312Z,99342.77
2018-07-13T17:32:35.583Z,99343.30
2018-07-13T17:35:06.361Z,99334.12
2018-07-13T17:37:36.662Z,99336.28
2018-07-13T17:40:07.028Z,99343.92
2018-07-13T17:42:37.201Z,99340.20
2018-07-13T17:45:07.555Z,99340.41
2018-07-13T17:47:37.926Z,99340.55
2018-07-13T17:50:08.315Z,99340.97
2018-07-13T17:52:38.485Z,99337.24
2018-07-13T17:55:13.672Z,99338.23
2018-07-13T17:57:46.266Z,99344.66
2018-07-13T18:00:16.392Z,99343.13
2018-07-13T18:02:46.706Z,99347.58
2018-07-13T18:05:17.212Z,99340.22
2018-07-13T18:07:47.641Z,99347.94
2018-07-13T18:10:18.098Z,99346.20
2018-07-13T18:12:48.570Z,99340.69
2018-07-13T18:15:19.136Z,99339.66
2018-07-13T18:17:49.965Z,99344.11
2018-07-13T18:20:20.353Z,99342.83
2018-07-13T18:22:50.877Z,99347.03
2018-07-13T18:25:21.122Z,99347.38
2018-07-13T18:27:51.592Z,99352.40
2018-07-13T18:30:21.804Z,99354.94
2018-07-13T18:32:52.153Z,99356.07
2018-07-13T18:35:22.433Z,99356.17
2018-07-13T18:37:53.009Z,99354.54
2018-07-13T18:40:24.048Z,99358.42
2018-07-13T18:42:54.417Z,99358.77
2018-07-13T18:45:24.640Z,99367.36
2018-07-13T18:47:55.009Z,99371.34
2018-07-13T18:50:25.878Z,99378.56
2018-07-13T18:52:56.006Z,99375.33
2018-07-13T18:55:26.499Z,99380.69
2018-07-13T18:57:57.067Z,99382.47
2018-07-13T19:00:28.124Z,99378.43
2018-07-13T19:02:58.469Z,99382.63
2018-07-13T19:05:28.954Z,99390.75
2018-07-13T19:07:59.308Z,99386.41
2018-07-13T19:10:29.783Z,99394.78
2018-07-13T19:12:59.968Z,99394.37
2018-07-13T19:15:30.913Z,99395.24
2018-07-13T19:18:01.367Z,99401.97
2018-07-13T19:20:31.731Z,99404.00
2018-07-13T19:23:02.149Z,99405.73
2018-07-13T19:25:32.831Z,99408.88
2018-07-13T19:28:03.077Z,99415.02
2018-07-13T19:30:33.484Z,99410.41
2018-07-13T19:33:04.254Z,99408.30
2018-07-13T19:35:34.704Z,99410.33
2018-07-13T19:38:05.502Z,99418.34
2018-07-13T19:40:35.908Z,99418.74
2018-07-13T19:43:06.200Z,99419.39
2018-07-13T19:45:36.552Z,99416.13
2018-07-13T19:48:07.079Z,99420.03
2018-07-13T19:50:38.514Z,99422.28
2018-07-13T19:53:08.890Z,99415.48
2018-07-13T19:55:39.479Z,99416.91
2018-07-13T19:58:09.706Z,99416.44
2018-07-13T20:00:39.947Z,99418.94
2018-07-13T20:03:10.475Z,99415.70
2018-07-13T20:05:40.985Z,99415.76
2018-07-13T20:08:11.221Z,99421.61
2018-07-13T20:10:41.370Z,99419.50
2018-07-13T20:13:11.926Z,99418.17
2018-07-13T20:15:42.091Z,99417.36
2018-07-13T20:18:12.175Z,99426.27
2018-07-13T20:20:42.912Z,99430.20
2018-07-13T20:23:13.197Z,99420.38
2018-07-13T20:25:43.301Z,99427.34
2018-07-13T20:28:13.618Z,99423.05
2018-07-13T20:30:43.798Z,99423.09
2018-07-13T20:33:14.421Z,99428.94
2018-07-13T20:35:45.138Z,99428.20
2018-07-13T20:38:15.316Z,99428.20
2018-07-13T20:40:47.117Z,99432.08
2018-07-13T20:43:17.383Z,99436.52
2018-07-13T20:45:48.352Z,99437.66
2018-07-13T20:48:19.106Z,99433.53
2018-07-13T20:50:49.223Z,99440.42
2018-07-13T20:53:19.690Z,99440.16
2018-07-13T20:55:50.045Z,99442.66
2018-07-13T20:58:20.400Z,99437.97
2018-07-13T21:00:50.546Z,99439.91
2018-07-13T21:03:20.737Z,99439.09
2018-07-13T21:05:51.354Z,99442.97
2018-07-13T21:08:21.558Z,99442.74
2018-07-13T21:10:51.905Z,99441.11
2018-07-13T21:13:22.218Z,99437.28
2018-07-13T21:15:52.801Z,99439.25
2018-07-13T21:18:23.029Z,99440.38
2018-07-13T21:20:53.147Z,99439.30
2018-07-13T21:23:23.464Z,99443.77
2018-07-13T21:25:54.041Z,99433.61
2018-07-13T21:28:24.661Z,99442.77
2018-07-13T21:30:54.639Z,99423.75
2018-07-13T21:33:31.304Z,99440.62
2018-07-13T21:36:01.680Z,99439.88
2018-07-13T21:38:31.935Z,99443.53
2018-07-13T21:41:02.932Z,99438.89
2018-07-13T21:43:33.116Z,99442.53
2018-07-13T21:46:03.223Z,99436.85
2018-07-13T21:48:33.805Z,99441.05
2018-07-13T21:51:04.598Z,99443.30
2018-07-13T21:53:34.834Z,99446.12
2018-07-13T21:56:05.018Z,99448.05
2018-07-13T21:58:35.524Z,99449.17
2018-07-13T22:01:05.668Z,99448.92
2018-07-13T22:03:35.391Z,99444.05
2018-07-13T22:06:06.221Z,99444.56
2018-07-13T22:08:36.438Z,99447.05
2018-07-13T22:11:06.750Z,99442.41
2018-07-13T22:13:37.476Z,99447.13
2018-07-13T22:16:07.637Z,99443.30
2018-07-13T22:18:38.150Z,99446.61
2018-07-13T22:21:09.255Z,99442.53
2018-07-13T22:23:39.668Z,99444.72
2018-07-13T22:26:09.797Z,99445.58
2018-07-13T22:28:40.177Z,99448.89
2018-07-13T22:31:10.389Z,99454.73
2018-07-13T22:33:40.547Z,99454.17
2018-07-13T22:36:10.955Z,99450.05
2018-07-13T22:38:41.350Z,99451.72
2018-07-13T22:41:11.798Z,99457.52
2018-07-13T22:43:42.090Z,99459.79
2018-07-13T22:46:12.566Z,99454.03
2018-07-13T22:48:43.330Z,99454.84
2018-07-13T22:51:13.820Z,99451.53
2018-07-13T22:53:44.658Z,99452.91
2018-07-13T22:56:14.857Z,99449.91
2018-07-13T22:58:45.293Z,99453.47
2018-07-13T23:01:15.496Z,99450.16
2018-07-13T23:03:46.276Z,99453.77
2018-07-13T23:06:16.647Z,99448.27
2018-07-13T23:08:47.673Z,99450.80
2018-07-13T23:11:17.868Z,99448.34
2018-07-13T23:13:48.375Z,99436.59
2018-07-13T23:16:18.729Z,99441.35
2018-07-13T23:18:49.397Z,99440.27
2018-07-13T23:21:19.767Z,99445.52
2018-07-13T23:23:49.768Z,99445.03
2018-07-13T23:26:20.361Z,99436.22
2018-07-13T23:28:50.804Z,99440.02
2018-07-13T23:31:20.954Z,99430.39
2018-07-13T23:33:51.283Z,99430.16
2018-07-13T23:36:21.712Z,99431.28
2018-07-13T23:38:52.004Z,99424.41
2018-07-13T23:41:22.207Z,99432.66
2018-07-13T23:43:52.450Z,99429.91
2018-07-13T23:46:22.810Z,99433.77
2018-07-13T23:48:52.886Z,99433.02
2018-07-13T23:51:23.039Z,99438.27
2018-07-13T23:53:53.339Z,99434.22
2018-07-13T23:56:23.714Z,99435.33
2018-07-13T23:58:54.597Z,99431.84
